createdAt,value
2019-04-01T00:00:57.924Z,100407.48
2019-04-01T00:03:27.770Z,100413.00
2019-04-01T00:05:57.621Z,100422.69
2019-04-01T00:08:46.562Z,100410.33
2019-04-01T00:11:35.278Z,100411.68
2019-04-01T00:14:24.188Z,100409.63
2019-04-01T00:17:13.124Z,100415.97
2019-04-01T00:20:01.954Z,100415.31
2019-04-01T00:22:33.690Z,100413.12
2019-04-01T00:25:22.637Z,100408.27
2019-04-01T00:27:53.563Z,100415.80
2019-04-01T00:30:43.472Z,100379.18
2019-04-01T00:33:32.482Z,100413.60
2019-04-01T00:36:02.468Z,100415.77
2019-04-01T00:38:52.996Z,100415.25
2019-04-01T00:41:41.724Z,100416.08
2019-04-01T00:44:30.714Z,100415.59
2019-04-01T00:47:02.455Z,100400.55
2019-04-01T00:49:32.373Z,100412.58
2019-04-01T00:54:54.218Z,100406.23
2019-04-01T00:57:24.125Z,100407.55
2019-04-01T00:59:55.160Z,100391.80
2019-04-01T01:02:28.989Z,100407.70
2019-04-01T01:04:59.820Z,100404.34
2019-04-01T01:07:29.693Z,100407.88
2019-04-01T01:10:18.603Z,100403.00
2019-04-01T01:13:07.483Z,100407.01
2019-04-01T01:15:56.460Z,100401.49
2019-04-01T01:21:34.946Z,100390.28
2019-04-01T01:24:04.871Z,100393.80
2019-04-01T01:26:36.983Z,100393.81
2019-04-01T01:29:07.240Z,100390.47
2019-04-01T01:31:57.010Z,100394.13
2019-04-01T01:34:46.046Z,100390.13
2019-04-01T01:37:15.946Z,100389.11
2019-04-01T01:39:45.886Z,100392.05
2019-04-01T01:45:18.272Z,100386.71
2019-04-01T01:47:48.318Z,100387.72
2019-04-01T01:53:20.665Z,100382.73
2019-04-01T01:55:50.668Z,100385.23
2019-04-01T02:01:49.955Z,100381.52
2019-04-01T02:04:21.625Z,100387.28
2019-04-01T02:06:51.548Z,100384.41
2019-04-01T02:09:42.294Z,100394.60
2019-04-01T02:12:13.172Z,100394.60
2019-04-01T02:15:03.853Z,100363.37
2019-04-01T02:17:35.780Z,100378.92
2019-04-01T02:20:06.546Z,100376.39
2019-04-01T02:22:56.412Z,100378.58
2019-04-01T02:25:39.390Z,100371.70
2019-04-01T02:27:58.778Z,100372.84
2019-04-01T02:30:28.594Z,100366.02
2019-04-01T02:32:58.431Z,100364.68
2019-04-01T02:35:28.309Z,100365.69
2019-04-01T02:40:58.930Z,100357.16
2019-04-01T02:43:48.710Z,100355.31
2019-04-01T02:46:18.634Z,100355.31
2019-04-01T02:49:27.884Z,100358.63
2019-04-01T02:52:16.534Z,100355.89
2019-04-01T02:55:06.840Z,100364.33
2019-04-01T02:57:39.556Z,100367.00
2019-04-01T03:00:28.484Z,100363.23
2019-04-01T03:06:06.265Z,100368.41
2019-04-01T03:08:55.241Z,100365.84
2019-04-01T03:17:23.611Z,100362.05
2019-04-01T03:20:04.976Z,100369.59
2019-04-01T03:22:53.918Z,100369.59
2019-04-01T03:25:24.574Z,100367.62
2019-04-01T03:30:57.396Z,100365.27
2019-04-01T03:33:27.355Z,100366.43
2019-04-01T03:36:18.086Z,100368.26
2019-04-01T03:38:48.029Z,100358.91
2019-04-01T03:41:18.758Z,100365.59
2019-04-01T03:44:28.462Z,100365.80
2019-04-01T03:46:58.355Z,100367.06
2019-04-01T03:49:30.723Z,100374.58
2019-04-01T03:52:19.625Z,100372.45
2019-04-01T03:57:56.660Z,100369.73
2019-04-01T04:01:05.981Z,100367.98
2019-04-01T04:03:31.746Z,100370.05
2019-04-01T04:06:03.329Z,100367.24
2019-04-01T04:08:54.526Z,100368.22
2019-04-01T04:11:31.416Z,100364.54
2019-04-01T04:14:24.056Z,100374.12
2019-04-01T04:17:12.953Z,100368.92
2019-04-01T04:19:44.577Z,100370.52
2019-04-01T04:22:14.540Z,100371.18
2019-04-01T04:25:05.290Z,100367.11
2019-04-01T04:27:37.038Z,100371.74
2019-04-01T04:30:08.868Z,100362.92
2019-04-01T04:32:58.761Z,100369.42
2019-04-01T04:35:28.657Z,100372.02
2019-04-01T04:38:18.163Z,100370.86
2019-04-01T04:40:48.922Z,100367.38
2019-04-01T04:46:26.555Z,100371.48
2019-04-01T04:52:04.713Z,100369.48
2019-04-01T04:54:49.652Z,100372.28
2019-04-01T04:59:52.886Z,100370.28
2019-04-01T05:02:36.946Z,100359.98
2019-04-01T05:04:57.452Z,100372.73
2019-04-01T05:08:38.868Z,100370.91
2019-04-01T05:11:21.812Z,100369.27
2019-04-01T05:14:31.846Z,100370.69
2019-04-01T05:17:03.048Z,100366.98
2019-04-01T05:26:26.015Z,100381.58
2019-04-01T05:28:57.743Z,100385.94
2019-04-01T05:38:09.157Z,100385.47
2019-04-01T05:40:42.227Z,100396.32
2019-04-01T05:43:14.006Z,100380.61
2019-04-01T05:45:46.225Z,100383.83
2019-04-01T05:48:18.375Z,100378.83
2019-04-01T05:50:50.045Z,100387.55
2019-04-01T05:53:19.907Z,100388.77
2019-04-01T05:55:49.775Z,100391.28
2019-04-01T05:58:20.570Z,100390.77
2019-04-01T06:01:08.030Z,100389.24
2019-04-01T06:03:40.646Z,100390.06
2019-04-01T06:06:10.626Z,100397.70
2019-04-01T06:08:41.844Z,100395.15
2019-04-01T06:11:11.722Z,100399.66
2019-04-01T06:13:45.983Z,100392.91
2019-04-01T06:16:18.180Z,100396.04
2019-04-01T06:18:59.684Z,100394.84
2019-04-01T06:21:41.623Z,100401.30
2019-04-01T06:24:18.126Z,100401.53
2019-04-01T06:26:55.083Z,100397.20
2019-04-01T06:29:28.964Z,100405.99
2019-04-01T06:32:01.784Z,100407.50
2019-04-01T06:34:36.998Z,100414.23
2019-04-01T06:37:20.907Z,100407.63
2019-04-01T06:39:55.302Z,100410.30
2019-04-01T06:42:33.571Z,100409.86
2019-04-01T06:45:06.046Z,100410.72
2019-04-01T06:47:51.250Z,100407.00
2019-04-01T06:50:21.940Z,100409.07
2019-04-01T06:52:52.151Z,100403.14
2019-04-01T06:55:22.826Z,100403.83
2019-04-01T06:57:54.664Z,100409.75
2019-04-01T07:00:27.808Z,100414.50
2019-04-01T07:03:07.194Z,100409.58
2019-04-01T07:05:35.418Z,100415.97
2019-04-01T07:08:07.157Z,100408.64
2019-04-01T07:10:40.119Z,100403.59
2019-04-01T07:13:12.809Z,100404.61
2019-04-01T07:15:48.138Z,100393.20
2019-04-01T07:18:23.658Z,100406.37
2019-04-01T07:20:57.445Z,100396.02
2019-04-01T07:23:49.125Z,100401.16
2019-04-01T07:26:29.695Z,100388.66
2019-04-01T07:29:05.539Z,100400.08
2019-04-01T07:31:45.227Z,100404.28
2019-04-01T07:34:19.967Z,100404.48
2019-04-01T07:37:02.005Z,100404.48
2019-04-01T07:39:42.302Z,100401.20
2019-04-01T07:42:15.743Z,100391.14
2019-04-01T07:44:48.221Z,100388.98
2019-04-01T07:47:22.987Z,100392.49
2019-04-01T07:49:54.795Z,100388.06
2019-04-01T07:52:29.775Z,100391.14
2019-04-01T07:55:10.021Z,100368.22
2019-04-01T07:57:44.077Z,100386.13
2019-04-01T08:00:18.626Z,100387.02
2019-04-01T08:03:02.363Z,100393.23
2019-04-01T08:05:57.994Z,100384.14
2019-04-01T08:08:36.441Z,100380.28
2019-04-01T08:11:10.016Z,100382.73
2019-04-01T08:13:43.650Z,100383.69
2019-04-01T08:16:25.115Z,100383.69
2019-04-01T08:18:58.574Z,100386.13
2019-04-01T08:21:39.263Z,100380.16
2019-04-01T08:24:10.851Z,100382.09
2019-04-01T08:26:44.166Z,100381.12
2019-04-01T08:29:30.168Z,100377.85
2019-04-01T08:31:54.615Z,100381.78
2019-04-01T08:34:30.112Z,100386.25
2019-04-01T08:37:03.593Z,100386.11
2019-04-01T08:39:37.847Z,100382.64
2019-04-01T08:42:09.621Z,100379.23
2019-04-01T08:44:51.388Z,100386.37
2019-04-01T08:47:28.995Z,100372.55
2019-04-01T08:50:22.071Z,100385.19
2019-04-01T08:53:03.825Z,100373.34
2019-04-01T08:56:00.549Z,100373.97
2019-04-01T08:58:32.966Z,100370.23
2019-04-01T09:01:12.594Z,100373.43
2019-04-01T09:04:20.083Z,100364.97
2019-04-01T09:06:56.137Z,100366.67
2019-04-01T09:09:30.373Z,100359.52
2019-04-01T09:12:15.879Z,100359.52
2019-04-01T09:14:55.987Z,100384.59
2019-04-01T09:17:49.067Z,100365.84
2019-04-01T09:20:46.300Z,100359.28
2019-04-01T09:23:26.996Z,100372.68
2019-04-01T09:26:04.566Z,100363.56
2019-04-01T09:28:46.272Z,100363.56
2019-04-01T09:31:40.810Z,100353.06
2019-04-01T09:34:35.846Z,100362.19
2019-04-01T09:37:11.130Z,100357.83
2019-04-01T09:39:53.015Z,100365.37
2019-04-01T09:42:52.956Z,100351.06
2019-04-01T09:45:33.790Z,100338.20
2019-04-01T09:48:23.431Z,100338.65
2019-04-01T09:51:47.808Z,100338.65
2019-04-01T09:54:20.707Z,100334.89
2019-04-01T09:57:23.726Z,100337.19
2019-04-01T09:59:54.743Z,100328.77
2019-04-01T10:02:46.746Z,100328.87
2019-04-01T10:05:18.932Z,100310.50
2019-04-01T10:10:51.508Z,100316.10
2019-04-01T10:13:39.293Z,100316.10
2019-04-01T10:16:35.740Z,100317.65
2019-04-01T10:19:11.443Z,100311.30
2019-04-01T10:21:53.163Z,100300.73
2019-04-01T10:24:42.405Z,100304.28
2019-04-01T10:27:39.218Z,100298.05
2019-04-01T10:30:55.116Z,100296.09
2019-04-01T10:33:37.206Z,100294.63
2019-04-01T10:36:27.954Z,100285.36
2019-04-01T10:39:14.959Z,100285.36
2019-04-01T10:41:56.195Z,100299.92
2019-04-01T10:44:41.567Z,100287.61
2019-04-01T10:47:35.414Z,100292.16
2019-04-01T10:50:15.481Z,100279.03
2019-04-01T10:56:35.769Z,100265.80
2019-04-01T10:59:11.173Z,100243.47
2019-04-01T11:02:07.687Z,100259.98
2019-04-01T11:04:45.277Z,100262.73
2019-04-01T11:07:43.320Z,100250.73
2019-04-01T11:10:34.384Z,100250.80
2019-04-01T11:13:24.467Z,100252.29
2019-04-01T11:16:14.839Z,100248.41
2019-04-01T11:18:58.608Z,100242.80
2019-04-01T11:21:37.210Z,100235.05
2019-04-01T11:24:24.689Z,100237.48
2019-04-01T11:27:02.324Z,100231.58
2019-04-01T11:29:47.767Z,100228.34
2019-04-01T11:32:28.051Z,100228.19
2019-04-01T11:35:07.943Z,100222.80
2019-04-01T11:38:03.827Z,100222.47
2019-04-01T11:40:44.365Z,100201.58
2019-04-01T11:43:53.443Z,100211.19
2019-04-01T11:46:55.606Z,100209.02
2019-04-01T11:50:02.326Z,100209.52
2019-04-01T11:53:03.028Z,100196.10
2019-04-01T11:55:41.867Z,100191.95
2019-04-01T11:58:27.846Z,100181.22
2019-04-01T12:04:06.591Z,100173.14
2019-04-01T12:10:38.498Z,100170.22
2019-04-01T12:13:24.385Z,100169.21
2019-04-01T12:16:01.305Z,100164.17
2019-04-01T12:18:48.741Z,100162.34
2019-04-01T12:21:28.425Z,100152.35
2019-04-01T12:24:28.214Z,100163.24
2019-04-01T12:27:10.000Z,100149.57
2019-04-01T12:29:58.013Z,100139.36
2019-04-01T12:32:50.771Z,100139.84
2019-04-01T12:35:30.486Z,100135.52
2019-04-01T12:38:18.209Z,100128.66
2019-04-01T12:41:11.331Z,100134.49
2019-04-01T12:43:50.846Z,100124.26
2019-04-01T12:46:25.939Z,100111.08
2019-04-01T12:49:11.000Z,100117.47
2019-04-01T12:51:52.527Z,100112.36
2019-04-01T12:54:24.946Z,100102.98
2019-04-01T12:57:07.936Z,100107.33
2019-04-01T12:59:49.708Z,100101.23
2019-04-01T13:02:42.797Z,100088.71
2019-04-01T13:05:33.257Z,100084.89
2019-04-01T13:08:20.589Z,100077.08
2019-04-01T13:11:12.994Z,100079.12
2019-04-01T13:14:10.245Z,100074.59
2019-04-01T13:16:52.968Z,100075.02
2019-04-01T13:19:38.539Z,100066.42
2019-04-01T13:22:43.151Z,100052.16
2019-04-01T13:25:29.198Z,100055.11
2019-04-01T13:28:08.211Z,100055.85
2019-04-01T13:34:12.786Z,100046.02
2019-04-01T13:39:55.731Z,100036.53
2019-04-01T13:42:43.808Z,100020.80
2019-04-01T13:45:32.683Z,100020.80
2019-04-01T13:48:57.065Z,100026.85
2019-04-01T13:51:25.584Z,100025.53
2019-04-01T13:54:08.934Z,99990.92
2019-04-01T13:56:43.382Z,99990.92
2019-04-01T13:59:29.658Z,99994.80
2019-04-01T14:02:07.129Z,99998.25
2019-04-01T14:04:56.259Z,99998.25
2019-04-01T14:08:01.837Z,99997.42
2019-04-01T14:10:48.751Z,99996.93
2019-04-01T14:13:31.798Z,99990.80
2019-04-01T14:16:12.282Z,99985.08
2019-04-01T14:19:21.675Z,99984.18
2019-04-01T14:22:20.635Z,99977.53
2019-04-01T14:25:07.314Z,99976.39
2019-04-01T14:27:51.795Z,99974.62
2019-04-01T14:30:53.926Z,99964.13
2019-04-01T14:33:49.611Z,99961.59
2019-04-01T14:36:38.150Z,99961.84
2019-04-01T14:39:28.123Z,99954.78
2019-04-01T14:46:52.670Z,99947.66
2019-04-01T14:49:43.644Z,99951.91
2019-04-01T14:52:33.042Z,99938.39
2019-04-01T14:55:25.152Z,99935.80
2019-04-01T14:58:30.628Z,99938.86
2019-04-01T15:01:32.028Z,99931.25
2019-04-01T15:04:25.658Z,99931.25
2019-04-01T15:07:18.698Z,99934.19
2019-04-01T15:10:01.453Z,99916.79
2019-04-01T15:13:04.010Z,99917.63
2019-04-01T15:15:38.116Z,99913.39
2019-04-01T15:18:16.515Z,99910.84
2019-04-01T15:20:58.754Z,99903.75
2019-04-01T15:23:39.282Z,99903.75
2019-04-01T15:26:37.255Z,99902.23
2019-04-01T15:29:44.232Z,99900.84
2019-04-01T15:32:49.415Z,99898.97
2019-04-01T15:35:37.464Z,99874.31
2019-04-01T15:38:26.940Z,99888.25
2019-04-01T15:41:05.566Z,99881.22
2019-04-01T15:43:53.317Z,99878.87
2019-04-01T15:46:36.842Z,99878.87
2019-04-01T15:49:24.450Z,99875.33
2019-04-01T15:52:08.009Z,99874.16
2019-04-01T15:54:52.159Z,99863.95
2019-04-01T15:57:35.789Z,99858.48
2019-04-01T16:00:48.699Z,99857.71
2019-04-01T16:03:18.690Z,99857.71
2019-04-01T16:05:49.523Z,99859.10
2019-04-01T16:08:19.484Z,99867.72
2019-04-01T16:11:02.568Z,99852.47
2019-04-01T16:13:32.502Z,99852.47
2019-04-01T16:16:07.501Z,99851.49
2019-04-01T16:18:40.058Z,99847.02
2019-04-01T16:21:15.077Z,99837.22
2019-04-01T16:23:58.601Z,99838.20
2019-04-01T16:26:35.718Z,99838.67
2019-04-01T16:29:14.600Z,99838.67
2019-04-01T16:31:46.573Z,99841.50
2019-04-01T16:34:21.172Z,99841.50
2019-04-01T16:36:52.147Z,99832.48
2019-04-01T16:39:25.541Z,99830.98
2019-04-01T16:41:59.931Z,99830.98
2019-04-01T16:44:34.112Z,99825.16
2019-04-01T16:47:04.804Z,99826.36
2019-04-01T16:49:38.338Z,99831.36
2019-04-01T16:52:15.702Z,99823.63
2019-04-01T16:54:49.570Z,99826.08
2019-04-01T16:57:19.609Z,99823.20
2019-04-01T16:59:57.127Z,99818.19
2019-04-01T17:02:33.421Z,99823.11
2019-04-01T17:05:09.803Z,99821.30
2019-04-01T17:07:41.174Z,99818.08
2019-04-01T17:10:12.571Z,99813.74
2019-04-01T17:12:43.476Z,99813.74
2019-04-01T17:15:15.034Z,99810.16
2019-04-01T17:17:49.059Z,99814.05
2019-04-01T17:20:29.833Z,99812.87
2019-04-01T17:23:02.470Z,99808.03
2019-04-01T17:25:39.399Z,99806.69
2019-04-01T17:28:12.083Z,99807.91
2019-04-01T17:30:50.565Z,99819.13
2019-04-01T17:33:22.708Z,99810.34
2019-04-01T17:35:54.630Z,99810.34
2019-04-01T17:38:25.377Z,99807.53
2019-04-01T17:40:59.488Z,99808.13
2019-04-01T17:43:30.419Z,99808.13
2019-04-01T17:46:05.228Z,99804.04
2019-04-01T17:48:42.161Z,99805.23
2019-04-01T17:51:25.179Z,99801.58
2019-04-01T17:54:00.850Z,99800.93
2019-04-01T17:56:34.954Z,99805.56
2019-04-01T17:59:06.390Z,99808.28
2019-04-01T18:01:36.442Z,99810.66
2019-04-01T18:04:10.212Z,99801.80
2019-04-01T18:06:47.178Z,99811.93
2019-04-01T18:09:20.722Z,99811.93
2019-04-01T18:12:03.395Z,99798.41
2019-04-01T18:14:44.003Z,99801.63
2019-04-01T18:17:28.645Z,99803.36
2019-04-01T18:20:04.230Z,99795.18
2019-04-01T18:22:42.617Z,99804.18
2019-04-01T18:25:14.584Z,99807.03
2019-04-01T18:27:49.397Z,99807.03
2019-04-01T18:30:26.657Z,99814.88
2019-04-01T18:33:01.711Z,99801.33
2019-04-01T18:35:33.486Z,99814.08
2019-04-01T18:38:05.321Z,99819.58
2019-04-01T18:40:39.717Z,99814.25
2019-04-01T18:43:13.813Z,99812.52
2019-04-01T18:45:45.837Z,99821.23
2019-04-01T18:48:27.317Z,99823.72
2019-04-01T18:50:57.249Z,99823.20
2019-04-01T18:53:33.436Z,99839.91
2019-04-01T18:56:05.201Z,99823.63
2019-04-01T18:58:44.020Z,99831.35
2019-04-01T19:01:22.801Z,99831.78
2019-04-01T19:04:02.071Z,99833.27
2019-04-01T19:06:32.029Z,99833.70
2019-04-01T19:09:09.332Z,99832.39
2019-04-01T19:11:43.491Z,99836.33
2019-04-01T19:14:23.157Z,99834.30
2019-04-01T19:17:04.803Z,99832.46
2019-04-01T19:19:35.137Z,99838.89
2019-04-01T19:22:07.983Z,99837.68
2019-04-01T19:24:40.582Z,99836.02
2019-04-01T19:27:10.490Z,99832.91
2019-04-01T19:29:46.956Z,99835.10
2019-04-01T19:32:16.912Z,99838.00
2019-04-01T19:34:49.164Z,99841.72
2019-04-01T19:37:19.391Z,99833.86
2019-04-01T19:39:52.599Z,99835.53
2019-04-01T19:42:33.060Z,99836.38
2019-04-01T19:44:58.476Z,99841.16
2019-04-01T19:47:28.628Z,99839.39
2019-04-01T19:49:58.654Z,99840.22
2019-04-01T19:52:28.667Z,99840.95
2019-04-01T19:55:16.113Z,99838.16
2019-04-01T19:57:45.901Z,99833.91
2019-04-01T20:00:27.733Z,99839.09
2019-04-01T20:02:51.214Z,99833.61
2019-04-01T20:05:30.715Z,99833.41
2019-04-01T20:08:05.199Z,99829.98
2019-04-01T20:10:38.554Z,99832.48
2019-04-01T20:13:10.140Z,99837.63
2019-04-01T20:15:40.352Z,99836.80
2019-04-01T20:18:13.003Z,99816.72
2019-04-01T20:20:49.814Z,99825.02
2019-04-01T20:23:23.733Z,99826.88
2019-04-01T20:26:05.753Z,99831.41
2019-04-01T20:28:38.680Z,99827.92
2019-04-01T20:31:08.486Z,99827.46
2019-04-01T20:33:38.376Z,99823.94
2019-04-01T20:36:08.793Z,99824.53
2019-04-01T20:38:43.969Z,99827.02
2019-04-01T20:41:13.888Z,99823.80
2019-04-01T20:43:44.207Z,99827.30
2019-04-01T20:46:16.177Z,99816.33
2019-04-01T20:48:45.962Z,99816.33
2019-04-01T20:51:19.893Z,99819.25
2019-04-01T20:53:51.268Z,99825.85
2019-04-01T20:56:21.411Z,99826.45
2019-04-01T20:58:51.380Z,99812.47
2019-04-01T21:01:21.835Z,99814.84
2019-04-01T21:03:54.736Z,99812.05
2019-04-01T21:06:27.412Z,99811.11
2019-04-01T21:08:57.417Z,99813.17
2019-04-01T21:11:28.925Z,99812.13
2019-04-01T21:14:03.090Z,99806.53
2019-04-01T21:16:44.029Z,99808.98
2019-04-01T21:19:14.172Z,99802.69
2019-04-01T21:21:48.620Z,99792.16
2019-04-01T21:24:18.549Z,99793.80
2019-04-01T21:26:48.451Z,99791.11
2019-04-01T21:29:20.329Z,99795.00
2019-04-01T21:32:07.271Z,99788.25
2019-04-01T21:34:37.269Z,99786.42
2019-04-01T21:37:07.185Z,99789.73
2019-04-01T21:39:37.957Z,99785.73
2019-04-01T21:42:07.913Z,99788.82
2019-04-01T21:44:39.099Z,99777.67
2019-04-01T21:47:08.995Z,99765.98
2019-04-01T21:49:44.783Z,99785.52
2019-04-01T21:52:17.950Z,99777.67
2019-04-01T21:54:47.818Z,99778.25
2019-04-01T21:57:20.458Z,99778.88
2019-04-01T21:59:49.767Z,99776.00
2019-04-01T22:02:19.811Z,99770.20
2019-04-01T22:04:49.796Z,99776.59
2019-04-01T22:07:20.086Z,99770.45
2019-04-01T22:09:56.190Z,99777.09
2019-04-01T22:12:27.456Z,99774.12
2019-04-01T22:14:57.918Z,99769.47
2019-04-01T22:17:27.944Z,99763.98
2019-04-01T22:20:00.210Z,99759.20
2019-04-01T22:22:30.708Z,99757.27
2019-04-01T22:25:01.275Z,99755.71
2019-04-01T22:27:31.581Z,99753.78
2019-04-01T22:30:01.852Z,99751.89
2019-04-01T22:32:31.867Z,99748.96
2019-04-01T22:35:05.398Z,99754.16
2019-04-01T22:37:37.420Z,99757.13
2019-04-01T22:40:09.932Z,99749.73
2019-04-01T22:42:39.995Z,99738.84
2019-04-01T22:45:13.751Z,99757.06
2019-04-01T22:47:45.334Z,99747.77
2019-04-01T22:50:15.644Z,99749.08
2019-04-01T22:52:45.542Z,99744.22
2019-04-01T22:55:15.439Z,99738.62
2019-04-01T22:57:45.748Z,99738.92
2019-04-01T23:00:21.528Z,99735.11
2019-04-01T23:02:51.547Z,99729.98
2019-04-01T23:05:21.465Z,99733.87
2019-04-01T23:07:51.452Z,99728.69
2019-04-01T23:10:21.320Z,99725.20
2019-04-01T23:12:51.595Z,99718.41
2019-04-01T23:15:23.468Z,99716.86
2019-04-01T23:17:53.413Z,99715.11
2019-04-01T23:20:23.506Z,99718.52
2019-04-01T23:22:53.858Z,99714.38
2019-04-01T23:25:23.871Z,99695.51
2019-04-01T23:27:55.335Z,99711.98
2019-04-01T23:30:26.379Z,99709.02
2019-04-01T23:32:56.263Z,99706.80
2019-04-01T23:35:27.367Z,99708.20
2019-04-01T23:37:57.727Z,99702.22
2019-04-01T23:40:27.694Z,99701.83
2019-04-01T23:42:57.950Z,99703.56
2019-04-01T23:45:28.529Z,99695.91
2019-04-01T23:47:58.546Z,99695.80
2019-04-01T23:50:28.524Z,99695.41
2019-04-01T23:52:58.759Z,99691.20
2019-04-01T23:55:29.204Z,99686.95
2019-04-01T23:57:59.563Z,99684.77
